Terminal Aerodrome Forecast
Issued by NWS

Home | Current Version | Previous Version | Text Only | Print | Product List | Glossary On
Versions: 1 2 3 4 5 6 7 8 9 10 11 12 13 14 15
000
FTUS42 TJSJ 251848 AAA
TAFJBQ
TAF AMD
TJBQ 251848Z 2519/2618 05008KT P6SM VCSH BKN021 BKN026 BKN040
     FM252300 11006KT P6SM FEW030
     FM261400 07014KT P6SM SCT025 SCT050
      AMD NOT SKED 2602/2611=

USA.gov is the U.S. government's official web portal to all federal, state and local government web resources and services.